createdAt,value
2019-03-01T00:02:47.461Z,97726.58
2019-03-01T00:07:01.023Z,97720.49
2019-03-01T00:11:14.675Z,97721.75
2019-03-01T00:15:25.417Z,97723.61
2019-03-01T00:19:45.263Z,97722.16
2019-03-01T00:23:59.177Z,97718.88
2019-03-01T00:28:29.983Z,97722.55
2019-03-01T00:32:49.974Z,97724.26
2019-03-01T00:37:17.449Z,97718.94
2019-03-01T00:41:28.278Z,97720.19
2019-03-01T00:45:33.169Z,97717.32
2019-03-01T00:49:38.135Z,97710.78
2019-03-01T00:53:43.039Z,97705.74
2019-03-01T00:57:47.939Z,97699.25
2019-03-01T01:01:52.834Z,97706.80
2019-03-01T01:05:57.721Z,97695.22
2019-03-01T01:10:02.617Z,97693.52
2019-03-01T01:14:08.589Z,97688.37
2019-03-01T01:18:13.505Z,97684.45
2019-03-01T01:22:18.405Z,97662.11
2019-03-01T01:26:23.286Z,97649.03
2019-03-01T01:30:28.215Z,97653.07
2019-03-01T01:34:33.078Z,97651.20
2019-03-01T01:38:37.990Z,97650.12
2019-03-01T01:42:42.878Z,97646.14
2019-03-01T01:46:47.759Z,97644.71
2019-03-01T01:50:52.648Z,97644.57
2019-03-01T01:54:57.540Z,97633.07
2019-03-01T01:59:02.425Z,97634.27
2019-03-01T02:03:07.392Z,97633.73
2019-03-01T02:07:12.271Z,97637.59
2019-03-01T02:11:17.833Z,97635.38
2019-03-01T02:15:22.726Z,97632.82
2019-03-01T02:19:28.587Z,97629.95
2019-03-01T02:23:33.475Z,97627.59
2019-03-01T02:27:38.359Z,97625.55
2019-03-01T02:31:46.438Z,97619.27
2019-03-01T02:35:51.405Z,97613.72
2019-03-01T02:39:56.286Z,97603.66
2019-03-01T02:44:01.176Z,97600.50
2019-03-01T02:48:06.074Z,97593.97
2019-03-01T02:52:10.974Z,97590.95
2019-03-01T02:56:15.875Z,97585.92
2019-03-01T03:00:23.807Z,97578.81
2019-03-01T03:04:28.702Z,97577.36
2019-03-01T03:08:33.998Z,97570.30
2019-03-01T03:12:38.897Z,97566.44
2019-03-01T03:16:43.808Z,97568.06
2019-03-01T03:20:48.709Z,97555.92
2019-03-01T03:24:53.606Z,97552.97
2019-03-01T03:28:58.482Z,97542.40
2019-03-01T03:33:04.423Z,97551.51
2019-03-01T03:37:09.326Z,97548.16
2019-03-01T03:41:14.206Z,97542.92
2019-03-01T03:45:19.270Z,97531.25
2019-03-01T03:49:24.150Z,97538.75
2019-03-01T03:53:29.041Z,97546.54
2019-03-01T03:57:33.938Z,97529.80
2019-03-01T04:01:38.827Z,97526.17
2019-03-01T04:05:43.737Z,97528.53
2019-03-01T04:09:48.611Z,97522.36
2019-03-01T04:13:53.501Z,97519.84
2019-03-01T04:17:58.393Z,97514.81
2019-03-01T04:22:03.288Z,97525.00
2019-03-01T04:26:08.176Z,97522.33
2019-03-01T04:30:17.661Z,97518.27
2019-03-01T04:34:22.570Z,97517.67
2019-03-01T04:38:27.440Z,97505.01
2019-03-01T04:42:32.328Z,97504.30
2019-03-01T04:46:37.219Z,97505.72
2019-03-01T04:50:42.096Z,97500.48
2019-03-01T04:54:46.988Z,97492.34
2019-03-01T04:58:51.877Z,97491.94
2019-03-01T05:02:56.771Z,97490.58
2019-03-01T05:07:01.655Z,97484.50
2019-03-01T05:11:06.535Z,97485.80
2019-03-01T05:15:20.296Z,97488.42
2019-03-01T05:19:25.187Z,97484.36
2019-03-01T05:23:30.079Z,97480.44
2019-03-01T05:27:34.975Z,97481.09
2019-03-01T05:31:39.848Z,97468.28
2019-03-01T05:35:44.741Z,97469.67
2019-03-01T05:39:49.648Z,97473.11
2019-03-01T05:43:54.540Z,97470.31
2019-03-01T05:47:59.434Z,97471.56
2019-03-01T05:52:04.321Z,97473.61
2019-03-01T05:56:09.208Z,97468.02
2019-03-01T06:00:14.109Z,97469.73
2019-03-01T06:04:24.550Z,97464.36
2019-03-01T06:08:47.563Z,97469.87
2019-03-01T06:13:04.055Z,97473.09
2019-03-01T06:17:43.652Z,97474.05
2019-03-01T06:21:57.367Z,97478.22
2019-03-01T06:26:26.411Z,97474.20
2019-03-01T06:30:55.024Z,97471.95
2019-03-01T06:35:08.279Z,97469.84
2019-03-01T06:39:36.918Z,97464.09
2019-03-01T06:43:56.548Z,97462.84
2019-03-01T06:48:01.443Z,97461.13
2019-03-01T06:52:06.326Z,97465.23
2019-03-01T06:56:11.390Z,97470.56
2019-03-01T07:00:16.292Z,97464.80
2019-03-01T07:04:21.167Z,97467.20
2019-03-01T07:08:26.065Z,97474.89
2019-03-01T07:12:30.961Z,97477.09
2019-03-01T07:16:36.124Z,97480.47
2019-03-01T07:20:41.023Z,97481.23
2019-03-01T07:24:45.913Z,97479.25
2019-03-01T07:28:50.807Z,97470.97
2019-03-01T07:32:55.724Z,97473.91
2019-03-01T07:37:00.629Z,97474.60
2019-03-01T07:41:05.533Z,97473.70
2019-03-01T07:45:12.802Z,97474.40
2019-03-01T07:49:17.701Z,97476.33
2019-03-01T07:53:22.609Z,97487.65
2019-03-01T07:57:28.477Z,97495.28
2019-03-01T08:01:33.382Z,97499.79
2019-03-01T08:05:39.370Z,97492.02
2019-03-01T08:09:45.698Z,97497.26
2019-03-01T08:13:53.123Z,97503.73
2019-03-01T08:17:57.241Z,97505.34
2019-03-01T08:22:02.211Z,97511.64
2019-03-01T08:26:07.104Z,97513.02
2019-03-01T08:30:14.445Z,97520.83
2019-03-01T08:34:20.413Z,97525.80
2019-03-01T08:38:28.492Z,97528.46
2019-03-01T08:42:32.629Z,97528.33
2019-03-01T08:46:42.120Z,97526.63
2019-03-01T08:50:45.137Z,97530.77
2019-03-01T08:54:50.173Z,97529.00
2019-03-01T08:58:55.037Z,97529.73
2019-03-01T09:03:03.801Z,97521.63
2019-03-01T09:07:08.697Z,97526.34
2019-03-01T09:11:14.672Z,97528.51
2019-03-01T09:15:19.564Z,97537.29
2019-03-01T09:19:25.240Z,97534.10
2019-03-01T09:23:31.047Z,97532.95
2019-03-01T09:27:35.957Z,97534.38
2019-03-01T09:31:40.860Z,97550.60
2019-03-01T09:35:56.714Z,97552.59
2019-03-01T09:40:05.425Z,97562.00
2019-03-01T09:44:08.299Z,97568.13
2019-03-01T09:48:13.225Z,97570.59
2019-03-01T09:52:20.395Z,97573.55
2019-03-01T09:56:24.735Z,97584.05
2019-03-01T10:00:34.361Z,97588.68
2019-03-01T10:04:39.266Z,97584.70
2019-03-01T10:08:44.172Z,97587.55
2019-03-01T10:12:50.166Z,97586.34
2019-03-01T10:16:55.068Z,97595.53
2019-03-01T10:20:59.978Z,97600.32
2019-03-01T10:25:07.515Z,97596.45
2019-03-01T10:29:12.441Z,97603.30
2019-03-01T10:33:17.323Z,97601.93
2019-03-01T10:37:22.223Z,97608.37
2019-03-01T10:41:27.125Z,97613.36
2019-03-01T10:45:32.396Z,97598.61
2019-03-01T10:49:37.295Z,97607.43
2019-03-01T10:53:42.215Z,97606.11
2019-03-01T10:57:47.245Z,97609.84
2019-03-01T11:01:53.119Z,97604.58
2019-03-01T11:05:58.032Z,97609.23
2019-03-01T11:10:03.595Z,97611.88
2019-03-01T11:14:08.494Z,97610.66
2019-03-01T11:18:13.399Z,97619.58
2019-03-01T11:22:18.314Z,97618.53
2019-03-01T11:26:23.216Z,97615.77
2019-03-01T11:30:30.816Z,97626.45
2019-03-01T11:34:36.323Z,97631.30
2019-03-01T11:38:41.202Z,97628.80
2019-03-01T11:42:46.125Z,97640.80
2019-03-01T11:46:51.026Z,97637.59
2019-03-01T11:50:55.931Z,97641.80
2019-03-01T11:55:00.843Z,97649.45
2019-03-01T11:59:05.741Z,97662.35
2019-03-01T12:03:10.654Z,97658.95
2019-03-01T12:07:15.558Z,97662.65
2019-03-01T12:11:20.468Z,97658.19
2019-03-01T12:15:25.380Z,97671.44
2019-03-01T12:19:30.292Z,97672.08
2019-03-01T12:23:35.204Z,97687.12
2019-03-01T12:27:40.166Z,97681.66
2019-03-01T12:31:45.033Z,97692.20
2019-03-01T12:35:49.940Z,97699.08
2019-03-01T12:39:54.856Z,97695.90
2019-03-01T12:43:59.772Z,97698.44
2019-03-01T12:48:04.683Z,97704.58
2019-03-01T12:52:09.588Z,97703.61
2019-03-01T12:56:15.471Z,97703.33
2019-03-01T13:00:26.054Z,97698.87
2019-03-01T13:04:30.971Z,97705.19
2019-03-01T13:08:36.200Z,97709.94
2019-03-01T13:12:41.103Z,97709.03
2019-03-01T13:16:46.052Z,97715.55
2019-03-01T13:20:50.952Z,97715.95
2019-03-01T13:24:55.876Z,97714.80
2019-03-01T13:29:00.810Z,97721.16
2019-03-01T13:33:05.715Z,97722.48
2019-03-01T13:37:14.430Z,97723.70
2019-03-01T13:41:17.263Z,97722.80
2019-03-01T13:45:26.079Z,97718.68
2019-03-01T13:49:31.378Z,97732.31
2019-03-01T13:53:37.271Z,97742.77
2019-03-01T13:57:42.269Z,97753.67
2019-03-01T14:01:47.790Z,97749.52
2019-03-01T14:05:54.847Z,97756.70
2019-03-01T14:10:00.820Z,97763.11
2019-03-01T14:14:07.478Z,97765.55
2019-03-01T14:18:12.384Z,97765.10
2019-03-01T14:22:17.286Z,97772.95
2019-03-01T14:26:23.268Z,97784.44
2019-03-01T14:30:30.026Z,97783.67
2019-03-01T14:34:35.991Z,97788.36
2019-03-01T14:38:40.973Z,97796.55
2019-03-01T14:42:47.565Z,97793.21
2019-03-01T14:46:52.924Z,97789.62
2019-03-01T14:50:59.206Z,97797.20
2019-03-01T14:55:05.580Z,97797.68
2019-03-01T14:59:19.739Z,97803.67
2019-03-01T15:03:33.042Z,97806.09
2019-03-01T15:07:37.943Z,97808.88
2019-03-01T15:11:44.338Z,97808.34
2019-03-01T15:15:49.530Z,97810.02
2019-03-01T15:19:55.516Z,97820.27
2019-03-01T15:24:01.454Z,97817.21
2019-03-01T15:28:06.518Z,97819.91
2019-03-01T15:32:12.534Z,97819.06
2019-03-01T15:36:18.969Z,97824.06
2019-03-01T15:40:24.113Z,97820.27
2019-03-01T15:44:29.022Z,97830.05
2019-03-01T15:48:34.409Z,97836.52
2019-03-01T15:52:40.527Z,97835.11
2019-03-01T15:56:45.438Z,97847.20
2019-03-01T16:00:50.332Z,97844.44
2019-03-01T16:04:55.245Z,97854.70
2019-03-01T16:09:00.157Z,97848.91
2019-03-01T16:13:08.416Z,97846.45
2019-03-01T16:17:11.668Z,97850.82
2019-03-01T16:21:16.567Z,97848.05
2019-03-01T16:25:21.626Z,97848.38
2019-03-01T16:29:26.455Z,97845.47
2019-03-01T16:33:31.370Z,97837.22
2019-03-01T16:37:37.714Z,97837.02
2019-03-01T16:41:43.687Z,97847.65
2019-03-01T16:45:48.806Z,97849.75
2019-03-01T16:49:53.717Z,97862.13
2019-03-01T16:53:58.622Z,97867.47
2019-03-01T16:58:07.359Z,97876.17
2019-03-01T17:02:11.204Z,97885.53
2019-03-01T17:06:16.101Z,97886.32
2019-03-01T17:10:22.544Z,97892.36
2019-03-01T17:14:27.469Z,97902.22
2019-03-01T17:18:33.346Z,97911.40
2019-03-01T17:22:38.237Z,97906.06
2019-03-01T17:26:43.142Z,97908.75
2019-03-01T17:30:50.836Z,97909.90
2019-03-01T17:34:54.654Z,97919.87
2019-03-01T17:38:59.585Z,97931.02
2019-03-01T17:43:04.486Z,97928.48
2019-03-01T17:47:10.686Z,97928.91
2019-03-01T17:51:18.280Z,97944.38
2019-03-01T17:55:24.450Z,97945.83
2019-03-01T17:59:29.343Z,97948.97
2019-03-01T18:03:34.238Z,97960.56
2019-03-01T18:07:39.204Z,97964.63
2019-03-01T18:11:44.539Z,97970.11
2019-03-01T18:15:50.304Z,97966.56
2019-03-01T18:19:55.210Z,97971.38
2019-03-01T18:24:00.104Z,97970.77
2019-03-01T18:28:05.025Z,97977.16
2019-03-01T18:32:10.886Z,97974.32
2019-03-01T18:36:15.907Z,97973.13
2019-03-01T18:40:20.800Z,97980.51
2019-03-01T18:44:26.109Z,97983.42
2019-03-01T18:48:33.554Z,97980.80
2019-03-01T18:52:38.661Z,97981.59
2019-03-01T18:56:43.556Z,97991.28
2019-03-01T19:00:50.956Z,97996.24
2019-03-01T19:04:56.161Z,98006.38
2019-03-01T19:09:01.058Z,98025.48
2019-03-01T19:13:07.567Z,98028.89
2019-03-01T19:17:12.462Z,98038.62
2019-03-01T19:21:18.210Z,98040.38
2019-03-01T19:25:25.290Z,98045.05
2019-03-01T19:29:29.842Z,98049.56
2019-03-01T19:33:37.754Z,98048.53
2019-03-01T19:37:41.353Z,98056.03
2019-03-01T19:41:46.263Z,98062.39
2019-03-01T19:45:51.154Z,98064.67
2019-03-01T19:49:56.065Z,98066.16
2019-03-01T19:54:02.051Z,98067.14
2019-03-01T19:58:08.808Z,98063.44
2019-03-01T20:02:14.210Z,98075.27
2019-03-01T20:06:19.114Z,98078.38
2019-03-01T20:10:24.487Z,98080.13
2019-03-01T20:14:30.324Z,98084.69
2019-03-01T20:18:36.005Z,98088.39
2019-03-01T20:22:40.905Z,98090.17
2019-03-01T20:26:45.799Z,98101.47
2019-03-01T20:30:50.700Z,98099.41
2019-03-01T20:34:55.609Z,98108.74
2019-03-01T20:39:00.516Z,98114.86
2019-03-01T20:43:07.253Z,98118.35
2019-03-01T20:47:12.089Z,98117.53
2019-03-01T20:51:16.994Z,98137.88
2019-03-01T20:55:23.849Z,98136.53
2019-03-01T20:59:28.573Z,98139.49
2019-03-01T21:03:33.487Z,98142.05
2019-03-01T21:07:38.751Z,98151.52
2019-03-01T21:11:43.656Z,98151.38
2019-03-01T21:15:48.560Z,98153.54
2019-03-01T21:19:53.461Z,98151.70
2019-03-01T21:23:58.378Z,98147.63
2019-03-01T21:28:03.266Z,98148.93
2019-03-01T21:32:08.186Z,98155.22
2019-03-01T21:36:13.106Z,98146.43
2019-03-01T21:40:18.010Z,98137.12
2019-03-01T21:44:22.920Z,98137.34
2019-03-01T21:48:27.838Z,98137.51
2019-03-01T21:52:33.821Z,98142.36
2019-03-01T21:56:41.038Z,98141.92
2019-03-01T22:00:45.345Z,98143.11
2019-03-01T22:04:50.269Z,98137.81
2019-03-01T22:08:55.165Z,98134.25
2019-03-01T22:13:00.515Z,98142.48
2019-03-01T22:17:06.262Z,98134.78
2019-03-01T22:21:11.164Z,98139.11
2019-03-01T22:25:16.242Z,98140.09
2019-03-01T22:29:21.129Z,98139.70
2019-03-01T22:33:26.037Z,98134.13
2019-03-01T22:37:30.945Z,98137.16
2019-03-01T22:41:39.345Z,98138.39
2019-03-01T22:45:45.489Z,98139.64
2019-03-01T22:49:49.037Z,98139.45
2019-03-01T22:53:53.949Z,98147.85
2019-03-01T22:58:00.881Z,98138.91
2019-03-01T23:02:08.206Z,98134.67
2019-03-01T23:06:14.648Z,98138.94
2019-03-01T23:10:21.541Z,98144.23
2019-03-01T23:14:27.320Z,98141.66
2019-03-01T23:18:33.105Z,98136.25
2019-03-01T23:22:38.014Z,98140.21
2019-03-01T23:26:42.940Z,98138.02
2019-03-01T23:30:47.841Z,98149.24
2019-03-01T23:34:52.747Z,98144.92
2019-03-01T23:38:57.652Z,98144.92
2019-03-01T23:43:02.562Z,98157.19
2019-03-01T23:47:07.477Z,98148.58
2019-03-01T23:51:12.372Z,98153.39
2019-03-01T23:55:18.981Z,98145.64
2019-03-01T23:59:26.654Z,98149.37
